Time;durP1;ratioP1;P1;durP2;ratioP2;P2;SDS_P1;SDS_P2;PMS_P1;PMS_P2;Temp;Humidity;BMP_temperature;BMP_pressure;BME280_temperature;BME280_humidity;BME280_pressure;Samples;Min_cycle;Max_cycle;Signal;HPM_P1;HPM_P2
2022/07/01 00:01:36;;;;;;;11.73;10.55;;;;;;;13.94;100.00;150725.38;4987110;28;20124;-61
2022/07/01 00:04:01;;;;;;;18.15;12.30;;;;;;;13.93;100.00;153913.22;4974248;28;20597;-61
2022/07/01 00:06:26;;;;;;;18.77;12.35;;;;;;;13.93;100.00;154978.50;4977306;28;20486;-61
2022/07/01 00:08:52;;;;;;;13.50;10.70;;;;;;;13.93;100.00;154623.81;4987681;28;20090;-59
2022/07/01 00:11:17;;;;;;;12.88;11.57;;;;;;;13.95;100.00;154983.59;4969692;28;20042;-59
2022/07/01 00:13:42;;;;;;;12.80;11.38;;;;;;;13.93;100.00;155333.22;4971276;28;20026;-60
2022/07/01 00:16:08;;;;;;;13.68;12.27;;;;;;;13.93;100.00;153204.03;4969910;28;20047;-59
2022/07/01 00:18:33;;;;;;;13.68;12.38;;;;;;;13.93;100.00;150724.16;4971465;28;20031;-59
2022/07/01 00:21:00;;;;;;;15.75;12.63;;;;;;;13.93;100.00;147890.34;4969267;28;20054;-59
2022/07/01 00:23:26;;;;;;;15.07;12.02;;;;;;;14.03;100.00;146849.88;4977265;28;20110;-60
2022/07/01 00:25:51;;;;;;;14.27;12.98;;;;;;;14.00;100.00;146843.81;4969973;28;20513;-59
2022/07/01 00:28:17;;;;;;;15.63;13.23;;;;;;;14.07;100.00;145443.38;4988682;28;20061;-59
2022/07/01 00:30:42;;;;;;;21.13;14.70;;;;;;;14.04;100.00;145436.19;4988372;28;20101;-60
2022/07/01 00:33:07;;;;;;;16.85;13.60;;;;;;;14.07;100.00;144736.66;4992929;28;20018;-59
2022/07/01 00:35:33;;;;;;;17.17;14.82;;;;;;;14.10;100.00;143682.13;4992536;28;20053;-59
2022/07/01 00:37:58;;;;;;;16.15;14.18;;;;;;;14.16;100.00;142986.22;4994074;28;20022;-59
2022/07/01 00:40:24;;;;;;;15.63;13.82;;;;;;;14.13;100.00;144395.81;4973721;28;20050;-59
2022/07/01 00:42:50;;;;;;;15.45;13.50;;;;;;;14.14;100.00;145814.09;4975425;28;20023;-60
2022/07/01 00:45:15;;;;;;;19.08;13.15;;;;;;;14.15;100.00;148294.38;4992240;28;20182;-60
2022/07/01 00:47:41;;;;;;;14.50;12.82;;;;;;;14.04;100.00;151104.59;4975760;28;20109;-59
2022/07/01 00:50:09;;;;;;;20.60;15.02;;;;;;;14.05;100.00;150396.97;4972543;28;20101;-59
2022/07/01 00:52:34;;;;;;;15.98;14.48;;;;;;;13.98;100.00;146129.78;4974598;28;20031;-59
2022/07/01 00:55:03;;;;;;;16.05;12.95;;;;;;;14.00;100.00;142242.53;4973029;28;20051;-60
2022/07/01 00:57:32;;;;;;;;;;;;;;;14.03;100.00;139068.81;4976703;28;20145;-59
2022/07/01 00:59:58;;;;;;;16.67;15.10;;;;;;;14.01;100.00;139063.13;4991720;28;19929;-60
2022/07/01 01:02:24;;;;;;;17.30;15.48;;;;;;;14.01;100.00;140123.44;4974284;28;20046;-59
2022/07/01 01:04:49;;;;;;;17.92;13.85;;;;;;;14.01;100.00;141184.03;4989095;28;20022;-60
2022/07/01 01:07:14;;;;;;;16.23;14.52;;;;;;;14.07;100.00;142967.47;4992250;28;20081;-59
2022/07/01 01:09:40;;;;;;;17.13;15.38;;;;;;;14.05;100.00;146500.59;4973859;28;20057;-60
2022/07/01 01:12:05;;;;;;;15.52;13.85;;;;;;;14.04;100.00;150395.75;4973608;28;20027;-60
2022/07/01 01:14:49;;;;;;;21.00;17.02;;;;;;;13.96;100.00;153567.44;4974406;28;20033;-60
2022/07/01 01:17:16;;;;;;;17.05;15.35;;;;;;;13.85;100.00;154603.47;4991704;28;20069;-60
2022/07/01 01:19:42;;;;;;;19.45;16.85;;;;;;;13.83;100.00;153534.66;5015907;28;20045;-59
2022/07/01 01:22:08;;;;;;;18.00;16.20;;;;;;;13.75;100.00;153161.25;5002842;28;20023;-60
2022/07/01 01:24:36;;;;;;;21.80;19.52;;;;;;;13.68;100.00;150308.06;5001629;28;20801;-60
2022/07/01 01:27:01;;;;;;;26.10;20.65;;;;;;;13.65;100.00;146761.91;4981825;28;20047;-60
2022/07/01 01:29:27;;;;;;;23.83;21.23;;;;;;;13.58;100.00;145331.25;4983753;28;20023;-60
2022/07/01 01:31:53;;;;;;;23.63;21.25;;;;;;;13.64;100.00;143223.75;4980648;28;20050;-60
2022/07/01 01:34:18;;;;;;;26.45;23.58;;;;;;;13.67;100.00;144289.22;4982042;28;20037;-60
2022/07/01 01:36:44;;;;;;;24.10;21.58;;;;;;;13.64;100.00;147114.56;4979657;28;20043;-58
2022/07/01 01:39:14;;;;;;;26.40;22.38;;;;;;;13.66;100.00;149240.84;4982293;28;20035;-58
2022/07/01 01:41:39;;;;;;;27.50;21.05;;;;;;;13.63;100.00;151006.56;4979116;28;20121;-59
2022/07/01 01:44:05;;;;;;;27.85;24.92;;;;;;;13.61;100.00;151710.03;4982950;28;20497;-62
2022/07/01 01:46:30;;;;;;;25.98;23.15;;;;;;;13.58;100.00;150640.00;4982276;28;20038;-61
2022/07/01 01:48:57;;;;;;;26.73;23.88;;;;;;;13.59;100.00;147809.03;4980535;28;20030;-62
2022/07/01 01:51:22;;;;;;;28.75;20.45;;;;;;;13.63;100.00;146758.31;4980810;28;20093;-61
2022/07/01 01:53:47;;;;;;;26.65;23.30;;;;;;;13.64;100.00;146759.47;4982748;28;20031;-61
2022/07/01 01:56:13;;;;;;;25.38;22.50;;;;;;;13.59;100.00;146041.06;4980048;28;20058;-61
2022/07/01 01:58:42;;;;;;;27.92;24.92;;;;;;;13.67;100.00;144642.91;4983524;28;20083;-61
2022/07/01 02:01:10;;;;;;;35.30;27.60;;;;;;;13.61;100.00;145338.41;4981953;28;20050;-61
2022/07/01 02:03:37;;;;;;;29.33;26.08;;;;;;;13.70;100.00;145003.75;4983327;28;20026;-61
2022/07/01 02:06:03;;;;;;;31.02;27.15;;;;;;;13.64;100.00;145699.31;4980388;28;20130;-61
2022/07/01 02:08:29;;;;;;;32.53;29.08;;;;;;;13.66;100.00;145701.72;4982150;28;20113;-61
2022/07/01 02:10:54;;;;;;;35.00;30.88;;;;;;;13.69;100.00;146416.47;4979570;28;20418;-60
2022/07/01 02:13:20;;;;;;;34.45;30.80;;;;;;;13.73;100.00;149966.25;4982971;28;20062;-60
2022/07/01 02:15:45;;;;;;;32.22;28.17;;;;;;;13.71;100.00;153504.38;4981758;28;20039;-62
2022/07/01 02:18:10;;;;;;;36.03;28.77;;;;;;;13.66;100.00;155265.53;4982467;28;20034;-61
2022/07/01 02:20:36;;;;;;;33.13;28.60;;;;;;;13.68;100.00;154560.22;4979575;28;20109;-61
2022/07/01 02:23:01;;;;;;;33.63;30.05;;;;;;;13.68;100.00;157752.22;4983003;28;20033;-62
2022/07/01 02:25:27;;;;;;;33.97;30.35;;;;;;;13.68;100.00;161887.13;4980361;28;20035;-62
2022/07/01 02:27:52;;;;;;;37.13;31.70;;;;;;;13.66;100.00;163344.25;4980945;28;20053;-61
2022/07/01 02:30:17;;;;;;;39.90;34.08;;;;;;;13.62;100.00;164127.22;4980551;28;20042;-62
2022/07/01 02:32:43;;;;;;;33.40;29.75;;;;;;;13.58;100.00;164115.03;4981139;28;20439;-62
2022/07/01 02:35:08;;;;;;;35.47;31.60;;;;;;;13.58;100.00;164116.41;4979992;28;20418;-62
2022/07/01 02:37:34;;;;;;;34.33;30.63;;;;;;;13.57;100.00;164113.72;4982661;28;20026;-62
2022/07/01 02:40:01;;;;;;;33.63;29.65;;;;;;;13.54;100.00;164104.25;4979355;28;20050;-62
2022/07/01 02:42:26;;;;;;;39.22;32.97;;;;;;;13.52;100.00;164098.81;4979886;28;20027;-62
2022/07/01 02:44:55;;;;;;;34.10;29.95;;;;;;;13.53;100.00;164102.88;4978909;28;20033;-61
2022/07/01 02:47:21;;;;;;;;;;;;;;;13.51;100.00;164097.50;4979769;28;20018;-62
2022/07/01 02:49:46;;;;;;;35.33;31.33;;;;;;;13.49;100.00;164093.41;4978442;28;19913;-61
2022/07/01 02:52:11;;;;;;;39.55;35.30;;;;;;;13.51;100.00;164097.50;4971551;28;20045;-62
2022/07/01 02:54:37;;;;;;;38.35;34.15;;;;;;;13.51;100.00;164097.50;4970688;28;20517;-62
2022/07/01 02:57:02;;;;;;;38.55;34.45;;;;;;;13.50;100.00;164094.78;4972271;28;20030;-62
2022/07/01 02:59:28;;;;;;;39.25;34.30;;;;;;;13.49;100.00;164092.06;4972500;28;20033;-62
2022/07/01 03:01:54;;;;;;;35.28;31.60;;;;;;;13.48;100.00;164089.34;4970499;28;20128;-62
2022/07/01 03:04:19;;;;;;;37.60;31.73;;;;;;;13.45;100.00;164081.22;4988456;28;20081;-62
2022/07/01 03:06:44;;;;;;;38.05;32.85;;;;;;;13.48;100.00;164089.34;4989182;28;20136;-62
2022/07/01 03:09:10;;;;;;;40.65;33.65;;;;;;;13.47;100.00;164086.66;4985824;28;20027;-62
2022/07/01 03:11:35;;;;;;;47.00;36.45;;;;;;;13.44;100.00;164078.56;4990055;28;20046;-62
2022/07/01 03:14:01;;;;;;;45.55;40.40;;;;;;;13.43;100.00;164077.19;4976439;28;20030;-62
2022/07/01 03:16:26;;;;;;;42.08;35.40;;;;;;;13.46;100.00;163515.06;4970329;28;20043;-62
2022/07/01 03:18:52;;;;;;;49.22;38.38;;;;;;;13.42;100.00;163648.59;4985288;28;20029;-62
2022/07/01 03:21:17;;;;;;;44.28;38.00;;;;;;;13.42;100.00;163588.88;4989743;28;20409;-60
2022/07/01 03:23:42;;;;;;;44.28;38.85;;;;;;;13.39;100.00;163639.09;4988605;28;20026;-59
2022/07/01 03:26:08;;;;;;;54.30;40.72;;;;;;;13.40;100.00;163759.72;4973224;28;20054;-61
2022/07/01 03:28:34;;;;;;;48.53;38.30;;;;;;;13.38;100.00;164031.72;4971676;28;20050;-62
2022/07/01 03:31:00;;;;;;;56.00;42.72;;;;;;;13.36;100.00;164056.88;4970373;28;20069;-63
2022/07/01 03:33:25;;;;;;;51.00;43.78;;;;;;;13.40;100.00;163904.00;4971812;28;20023;-62
2022/07/01 03:35:50;;;;;;;51.88;41.78;;;;;;;13.39;100.00;164065.00;4979669;28;20517;-63
2022/07/01 03:38:16;;;;;;;57.40;42.55;;;;;;;13.38;100.00;164062.25;4990977;28;20117;-62
2022/07/01 03:40:41;;;;;;;52.15;43.72;;;;;;;13.42;100.00;164073.13;4989495;28;20050;-62
2022/07/01 03:43:07;;;;;;;65.68;46.50;;;;;;;13.41;100.00;164070.44;4984720;28;20554;-63
2022/07/01 03:45:32;;;;;;;59.75;46.13;;;;;;;13.41;100.00;164070.44;4975009;28;20039;-63
2022/07/01 03:47:58;;;;;;;63.83;47.72;;;;;;;13.40;100.00;164067.72;4979362;28;20501;-60
2022/07/01 03:50:24;;;;;;;59.13;45.33;;;;;;;13.38;100.00;164062.25;4979029;28;20062;-62
2022/07/01 03:54:29;;;;;;;63.13;45.25;;;;;;;13.41;100.00;164070.44;4975460;28;20504;-62
2022/07/01 03:55:36;;;;;;;66.32;46.22;;;;;;;13.37;100.00;164059.53;4989299;28;20046;-62
2022/07/01 03:58:02;;;;;;;67.40;48.22;;;;;;;13.40;100.00;164067.72;4990687;28;20478;-62
2022/07/01 04:00:27;;;;;;;66.35;47.75;;;;;;;13.43;100.00;164077.19;4989451;28;20057;-62
2022/07/01 04:02:53;;;;;;;69.72;47.78;;;;;;;13.46;100.00;164083.94;4989992;28;20485;-61
2022/07/01 04:05:18;;;;;;;69.40;50.70;;;;;;;13.45;100.00;164082.59;4992735;28;20109;-62
2022/07/01 04:07:44;;;;;;;69.13;50.00;;;;;;;13.51;100.00;164097.50;4987630;28;20070;-62
2022/07/01 04:10:09;;;;;;;75.88;52.53;;;;;;;13.51;100.00;164097.50;4973651;28;20418;-62
2022/07/01 04:12:34;;;;;;;69.70;49.50;;;;;;;13.42;100.00;164073.13;4975295;28;20042;-62
2022/07/01 04:15:00;;;;;;;75.38;53.28;;;;;;;13.41;100.00;164070.44;4973695;28;20034;-62
2022/07/01 04:17:26;;;;;;;68.53;47.72;;;;;;;13.45;100.00;164081.22;4992681;28;20033;-63
2022/07/01 04:19:51;;;;;;;69.80;51.35;;;;;;;13.43;100.00;164075.84;4990203;28;20505;-62
2022/07/01 04:22:32;;;;;;;61.72;48.72;;;;;;;13.39;100.00;164065.00;4974822;28;20027;-62
2022/07/01 04:24:58;;;;;;;61.20;48.50;;;;;;;13.37;100.00;164059.53;4979795;28;20043;-61
2022/07/01 04:27:23;;;;;;;55.65;45.42;;;;;;;13.33;100.00;164051.44;4983166;28;20116;-61
2022/07/01 04:29:48;;;;;;;58.95;47.45;;;;;;;13.37;100.00;164059.53;4983386;28;20011;-62
2022/07/01 04:32:14;;;;;;;56.42;45.05;;;;;;;13.32;100.00;164048.75;4982702;28;20909;-61
2022/07/01 04:34:39;;;;;;;57.95;44.70;;;;;;;13.31;100.00;164046.03;4984347;28;20030;-60
2022/07/01 04:37:04;;;;;;;50.65;41.55;;;;;;;13.34;100.00;164052.78;4981244;28;20269;-61
2022/07/01 04:39:30;;;;;;;52.63;41.65;;;;;;;13.29;100.00;164040.59;4979943;28;20033;-60
2022/07/01 04:42:01;;;;;;;54.83;42.88;;;;;;;13.27;100.00;164035.22;4980164;28;20105;-60
2022/07/01 04:44:28;;;;;;;48.67;41.30;;;;;;;13.26;100.00;164032.53;4985043;28;20050;-61
2022/07/01 04:46:54;;;;;;;51.97;41.42;;;;;;;13.21;100.00;164019.03;4980491;28;20070;-61
2022/07/01 04:49:19;;;;;;;52.80;40.47;;;;;;;13.26;100.00;164032.53;4993769;28;20073;-61
2022/07/01 04:51:45;;;;;;;45.30;38.35;;;;;;;13.24;100.00;164027.09;4991592;28;20146;-60
2022/07/01 04:54:10;;;;;;;47.83;38.38;;;;;;;13.28;100.00;164037.94;4991239;28;20080;-60
2022/07/01 04:56:37;;;;;;;40.88;36.17;;;;;;;13.31;100.00;164046.03;4991007;28;20053;-60
2022/07/01 04:59:03;;;;;;;40.53;36.08;;;;;;;13.30;100.00;164043.31;4984462;28;20430;-62
2022/07/01 05:01:28;;;;;;;47.63;38.78;;;;;;;13.28;100.00;164037.94;4980407;28;20042;-62
2022/07/01 05:03:54;;;;;;;43.53;36.67;;;;;;;13.31;100.00;164044.69;4982499;28;20022;-62
2022/07/01 05:06:20;;;;;;;42.13;35.30;;;;;;;13.32;100.00;164048.75;4991860;28;20042;-61
2022/07/01 05:08:45;;;;;;;41.88;35.08;;;;;;;13.31;100.00;164046.03;4991906;28;20085;-61
2022/07/01 05:11:10;;;;;;;45.42;32.30;;;;;;;13.35;100.00;164054.16;4977374;28;20042;-62
2022/07/01 05:13:36;;;;;;;41.20;34.22;;;;;;;13.36;100.00;164056.88;4987197;28;20034;-63
2022/07/01 05:16:02;;;;;;;40.90;33.10;;;;;;;13.34;100.00;164052.78;4985004;28;20046;-63
2022/07/01 05:23:55;;;;;;;39.95;33.15;;;;;;;13.40;100.00;164069.09;4980465;28;20034;-63
2022/07/01 05:26:20;;;;;;;35.95;31.63;;;;;;;13.39;100.00;164065.00;4975082;28;20215;-62
2022/07/01 05:28:46;;;;;;;44.40;33.60;;;;;;;13.36;100.00;164056.88;4980987;28;20026;-63
2022/07/01 05:31:12;;;;;;;50.28;36.15;;;;;;;13.39;100.00;164065.00;4977307;28;20410;-63
2022/07/01 05:33:37;;;;;;;39.95;34.08;;;;;;;13.38;100.00;164062.25;4984135;28;20626;-62
2022/07/01 05:36:03;;;;;;;37.88;33.00;;;;;;;13.36;100.00;164056.88;4980433;28;20108;-62
2022/07/01 05:38:28;;;;;;;45.47;34.42;;;;;;;13.31;100.00;164046.03;4979928;28;20027;-63
2022/07/01 05:40:53;;;;;;;42.25;32.55;;;;;;;13.37;100.00;164059.53;4980197;28;20061;-63
2022/07/01 05:43:19;;;;;;;40.63;31.90;;;;;;;13.37;100.00;164059.53;4980555;28;20026;-62
2022/07/01 05:45:45;;;;;;;39.65;34.45;;;;;;;13.41;100.00;164070.44;4979027;28;20034;-62
2022/07/01 05:48:10;;;;;;;44.72;35.20;;;;;;;13.45;100.00;164082.59;4980487;28;20037;-62
2022/07/01 05:50:35;;;;;;;44.75;34.10;;;;;;;13.47;100.00;164086.66;4978655;28;20046;-63
2022/07/01 05:53:01;;;;;;;43.60;34.63;;;;;;;13.47;100.00;164088.03;4979277;28;20528;-62
2022/07/01 05:55:26;;;;;;;47.55;34.67;;;;;;;13.46;100.00;164083.94;4978355;28;20050;-62
2022/07/01 05:57:52;;;;;;;42.92;34.10;;;;;;;13.51;100.00;164097.50;4982780;28;20447;-62
2022/07/01 06:00:17;;;;;;;44.50;37.45;;;;;;;13.54;100.00;164105.56;4978441;28;20390;-62
2022/07/01 06:02:43;;;;;;;40.45;33.13;;;;;;;13.66;100.00;164136.69;4978479;28;20375;-62
2022/07/01 06:05:08;;;;;;;40.78;33.13;;;;;;;13.69;100.00;164143.44;4974776;28;20046;-59
2022/07/01 06:07:33;;;;;;;40.10;31.58;;;;;;;13.72;100.00;164151.56;4978999;28;20124;-59
2022/07/01 06:09:59;;;;;;;39.42;30.95;;;;;;;13.78;100.00;164167.78;4988871;28;20502;-60
2022/07/01 06:12:24;;;;;;;33.95;29.52;;;;;;;13.87;100.00;164192.16;4972609;28;20375;-60
2022/07/01 06:14:49;;;;;;;34.65;28.95;;;;;;;13.92;100.00;164205.66;4980299;28;20029;-59
2022/07/01 06:17:16;;;;;;;39.53;31.88;;;;;;;14.00;100.00;164224.59;4988141;28;20046;-60
2022/07/01 06:19:42;;;;;;;34.50;28.45;;;;;;;14.07;100.00;164243.53;4986274;28;20486;-59
2022/07/01 06:22:08;;;;;;;30.58;24.98;;;;;;;14.11;100.00;164254.38;4990734;28;20034;-60
2022/07/01 06:24:33;;;;;;;31.38;24.25;;;;;;;14.17;100.00;164270.59;4987431;28;20045;-60
2022/07/01 06:26:59;;;;;;;27.13;24.23;;;;;;;14.14;100.00;164262.47;4974660;28;20534;-60
2022/07/01 06:29:27;;;;;;;30.35;24.23;;;;;;;14.20;100.00;164277.34;4984195;28;20375;-60
2022/07/01 06:31:52;;;;;;;27.83;22.13;;;;;;;14.34;100.00;164313.84;4986772;28;20053;-60
2022/07/01 06:34:18;;;;;;;25.52;21.90;;;;;;;14.37;100.00;164322.00;4986697;28;20038;-60
2022/07/01 06:36:43;;;;;;;27.05;21.33;;;;;;;14.37;100.00;164322.00;4996044;28;20042;-60
2022/07/01 06:39:08;;;;;;;28.73;22.25;;;;;;;14.34;100.00;164313.84;5004123;28;20508;-59
2022/07/01 06:41:34;;;;;;;24.45;20.35;;;;;;;14.38;100.00;164324.72;4987633;28;20046;-60
2022/07/01 06:44:01;;;;;;;27.73;21.08;;;;;;;14.40;100.00;164330.13;4988284;28;20054;-60
2022/07/01 06:46:28;;;;;;;23.15;20.77;;;;;;;14.43;100.00;164339.59;4978014;28;20046;-59
2022/07/01 06:48:54;;;;;;;22.58;20.15;;;;;;;14.40;100.00;164330.13;4977926;28;20027;-58
2022/07/01 06:51:20;;;;;;;29.30;22.27;;;;;;;14.45;100.00;164343.66;4982142;28;20066;-59
2022/07/01 06:53:46;;;;;;;23.30;19.30;;;;;;;14.46;100.00;164346.34;4979124;28;20026;-55
2022/07/01 06:56:12;;;;;;;25.42;20.73;;;;;;;14.41;100.00;164334.19;4970882;28;20050;-58
2022/07/01 06:58:38;;;;;;;22.42;18.10;;;;;;;14.46;100.00;164346.34;4977153;28;20026;-56
2022/07/01 07:01:04;;;;;;;25.58;20.50;;;;;;;14.58;100.00;164378.81;4976405;28;20422;-56
2022/07/01 07:03:29;;;;;;;26.08;19.52;;;;;;;14.68;100.00;164403.22;4978715;28;20030;-56
2022/07/01 07:05:55;;;;;;;21.83;19.52;;;;;;;14.73;100.00;164416.75;4984653;28;20061;-56
2022/07/01 07:08:20;;;;;;;22.85;18.48;;;;;;;14.96;100.00;164476.28;4981185;28;20094;-57
2022/07/01 07:10:46;;;;;;;22.45;17.85;;;;;;;15.06;100.00;164503.38;4970449;28;20128;-56
2022/07/01 07:13:11;;;;;;;25.13;19.00;;;;;;;15.11;100.00;164516.91;4981812;28;20038;-56
2022/07/01 07:15:41;;;;;;;23.40;18.08;;;;;;;15.28;100.00;164560.22;4989878;28;20034;-56
2022/07/01 07:18:07;;;;;;;22.90;20.00;;;;;;;15.59;100.00;164641.47;4990744;28;20389;-56
2022/07/01 07:20:33;;;;;;;29.17;18.55;;;;;;;16.16;100.00;164791.75;4989430;28;20146;-56
2022/07/01 07:22:58;;;;;;;23.33;17.60;;;;;;;16.52;100.00;164886.63;4990542;28;20473;-56
2022/07/01 07:25:24;;;;;;;20.27;17.90;;;;;;;16.63;100.00;164915.06;4989661;28;20046;-56
2022/07/01 07:27:49;;;;;;;25.25;17.60;;;;;;;16.96;100.00;165001.78;4990895;28;20050;-56
2022/07/01 07:30:16;;;;;;;28.48;19.13;;;;;;;17.18;100.00;165060.06;4988996;28;20046;-56
2022/07/01 07:32:41;;;;;;;18.80;16.92;;;;;;;17.09;100.00;165037.00;4990921;28;20634;-56
2022/07/01 07:35:08;;;;;;;20.08;16.02;;;;;;;16.98;100.00;165007.22;4989168;28;20042;-56
2022/07/01 07:37:33;;;;;;;20.35;15.43;;;;;;;16.95;100.00;164999.06;4990085;28;20113;-56
2022/07/01 07:39:59;;;;;;;20.08;16.55;;;;;;;16.72;100.00;164939.41;4989251;28;20469;-56
2022/07/01 07:42:25;;;;;;;26.05;18.02;;;;;;;16.58;100.00;164901.47;4990711;28;20126;-56
2022/07/01 07:44:50;;;;;;;17.77;16.00;;;;;;;16.60;100.00;164908.31;4989104;28;20093;-56
2022/07/01 07:47:15;;;;;;;15.30;13.68;;;;;;;16.55;100.00;164894.72;4990531;28;20381;-56
2022/07/01 07:49:41;;;;;;;16.15;14.25;;;;;;;16.53;100.00;164889.28;4982961;28;20026;-57
2022/07/01 07:52:06;;;;;;;16.55;14.48;;;;;;;16.37;100.00;164845.97;4988829;28;20023;-56
2022/07/01 07:54:31;;;;;;;20.23;14.45;;;;;;;16.22;100.00;164806.69;4988846;28;20077;-56
2022/07/01 07:56:57;;;;;;;19.13;14.98;;;;;;;16.23;100.00;164809.41;4969581;28;20460;-56
2022/07/01 07:59:22;;;;;;;17.42;15.23;;;;;;;16.58;100.00;164901.47;4974226;28;20034;-57
2022/07/01 08:01:48;;;;;;;17.80;14.30;;;;;;;16.89;100.00;164982.78;4987005;28;20050;-57
2022/07/01 08:04:13;;;;;;;21.05;16.02;;;;;;;17.31;100.00;165093.97;4990299;28;20037;-56
2022/07/01 08:06:38;;;;;;;18.83;13.75;;;;;;;17.49;100.00;165140.03;4988535;28;20069;-56
2022/07/01 08:09:04;;;;;;;15.73;14.18;;;;;;;17.80;100.00;165222.69;4970721;28;20030;-56
2022/07/01 08:11:29;;;;;;;18.02;13.45;;;;;;;17.70;100.00;165196.94;4980470;28;20050;-56
2022/07/01 08:13:54;;;;;;;13.18;11.77;;;;;;;17.47;100.00;165134.59;4990085;28;20433;-56
2022/07/01 08:16:20;;;;;;;13.27;10.85;;;;;;;17.50;100.00;165142.72;4986664;28;20498;-56
2022/07/01 08:18:45;;;;;;;14.60;13.15;;;;;;;17.30;100.00;165091.25;4991250;28;20027;-56
2022/07/01 08:21:10;;;;;;;17.20;12.45;;;;;;;17.56;100.00;165159.00;4988372;28;20053;-56
2022/07/01 08:23:36;;;;;;;17.63;13.20;;;;;;;17.39;100.00;165114.28;4993560;28;20034;-56
2022/07/01 08:26:01;;;;;;;14.90;12.70;;;;;;;17.33;100.00;165098.03;5007583;28;20034;-56
2022/07/01 08:28:27;;;;;;;14.95;11.05;;;;;;;17.46;100.00;165131.91;4997745;28;20081;-56
2022/07/01 08:30:52;;;;;;;12.65;11.25;;;;;;;17.22;100.00;165069.56;4989929;28;20477;-56
2022/07/01 08:33:18;;;;;;;18.85;11.25;;;;;;;17.15;100.00;165050.59;4989755;28;20026;-56
2022/07/01 08:35:43;;;;;;;13.65;10.70;;;;;;;17.31;100.00;165093.97;4988626;28;20050;-56
2022/07/01 08:38:08;;;;;;;18.23;11.55;;;;;;;17.34;100.00;165102.06;4999642;28;20036;-56
2022/07/01 08:40:34;;;;;;;15.65;11.95;;;;;;;17.44;100.00;165129.19;5008011;28;20057;-56
2022/07/01 08:43:02;;;;;;;17.77;12.15;;;;;;;17.33;100.00;165099.34;5004732;28;20049;-56
2022/07/01 08:45:31;;;;;;;14.43;12.55;;;;;;;17.37;100.00;165110.22;4988726;28;20358;-56
2022/07/01 08:48:00;;;;;;;12.70;10.57;;;;;;;17.40;100.00;165118.31;5007191;28;20121;-56
2022/07/01 08:50:26;;;;;;;14.48;10.73;;;;;;;17.12;100.00;165045.16;5010743;28;20381;-56
2022/07/01 08:52:52;;;;;;;15.45;12.25;;;;;;;17.33;100.00;165099.34;5013247;28;20496;-56
2022/07/01 08:55:19;;;;;;;13.23;10.75;;;;;;;17.49;100.00;165140.03;5011683;28;20041;-56
2022/07/01 08:57:45;;;;;;;16.02;10.38;;;;;;;17.59;100.00;165167.16;5012979;28;20026;-56
2022/07/01 09:00:11;;;;;;;12.98;9.93;;;;;;;17.94;100.00;165259.31;5000524;28;20545;-56
2022/07/01 09:02:51;;;;;;;11.50;9.30;;;;;;;18.36;100.00;165370.50;5002260;28;20041;-56
2022/07/01 09:05:17;;;;;;;12.07;10.23;;;;;;;18.87;100.00;165504.78;4991800;28;20046;-56
2022/07/01 09:07:42;;;;;;;14.48;10.60;;;;;;;19.13;100.00;165571.31;4995894;28;20034;-57
2022/07/01 09:10:19;;;;;;;22.10;10.10;;;;;;;19.22;100.00;165595.72;5010737;28;20100;-56
2022/07/01 09:12:46;;;;;;;13.82;9.25;;;;;;;19.91;100.00;165777.63;5012660;28;20030;-56
2022/07/01 09:15:24;;;;;;;13.23;9.05;;;;;;;19.87;100.00;165766.72;5011241;28;20046;-56
2022/07/01 09:17:50;;;;;;;15.85;8.25;;;;;;;19.30;100.00;165617.44;5009947;28;20029;-57
2022/07/01 09:20:26;;;;;;;11.48;8.88;;;;;;;18.89;100.00;165508.84;5002572;28;20555;-56
2022/07/01 09:23:21;;;;;;;12.70;9.50;;;;;;;18.35;100.00;165367.84;5011854;28;20037;-56
2022/07/01 09:25:49;;;;;;;10.95;9.10;;;;;;;18.26;100.00;165343.44;4999504;28;20049;-56
2022/07/01 09:28:16;;;;;;;14.48;9.50;;;;;;;18.74;100.00;165469.53;5023813;28;20130;-56
2022/07/01 09:30:43;;;;;;;10.57;8.13;;;;;;;18.71;100.00;165462.75;5002378;28;20129;-57
2022/07/01 09:33:17;;;;;;;11.30;7.50;;;;;;;18.98;100.00;165533.31;4993332;28;20034;-56
2022/07/01 09:35:45;;;;;;;14.50;8.85;;;;;;;19.58;100.00;165690.69;4998355;28;20401;-56
2022/07/01 09:38:13;;;;;;;10.80;8.00;;;;;;;19.57;100.00;165687.97;5018414;28;20029;-56
2022/07/01 09:40:50;;;;;;;16.05;8.88;;;;;;;19.14;100.00;165574.03;5016664;28;20464;-57
2022/07/01 09:43:35;;;;;;;9.20;8.25;;;;;;;19.90;100.00;165774.88;5002859;28;20046;-57
2022/07/01 09:46:06;;;;;;;11.20;8.63;;;;;;;19.40;100.00;165641.88;5001563;28;20041;-56
2022/07/01 09:48:31;;;;;;;13.02;8.35;;;;;;;18.71;100.00;165462.75;5008557;28;20424;-56
2022/07/01 09:50:57;;;;;;;10.98;7.88;;;;;;;19.05;100.00;165549.59;5005476;28;20188;-57
2022/07/01 09:53:22;;;;;;;12.60;7.57;;;;;;;18.74;100.00;165468.16;5008866;28;20034;-56
2022/07/01 09:55:48;;;;;;;8.32;6.78;;;;;;;18.69;100.00;165457.31;5000922;28;20354;-57
2022/07/01 09:58:14;;;;;;;11.18;6.97;;;;;;;18.74;100.00;165468.16;5011289;28;20049;-56
2022/07/01 10:00:40;;;;;;;6.72;5.85;;;;;;;18.68;100.00;165454.59;4996612;28;20129;-57
2022/07/01 10:03:06;;;;;;;8.13;7.28;;;;;;;18.70;100.00;165460.03;5011631;28;20609;-56
2022/07/01 10:05:38;;;;;;;6.78;6.05;;;;;;;18.49;100.00;165403.09;5005639;28;20133;-57
2022/07/01 10:08:46;;;;;;;7.70;6.75;;;;;;;18.58;100.00;165427.47;4991878;28;20468;-56
2022/07/01 10:11:27;;;;;;;12.52;6.55;;;;;;;18.64;100.00;165442.41;4990223;28;20069;-56
2022/07/01 10:13:53;;;;;;;6.93;4.47;;;;;;;19.08;100.00;165557.75;4992239;28;20018;-56
2022/07/01 10:16:19;;;;;;;7.05;5.47;;;;;;;19.42;100.00;165647.25;5000901;28;20436;-56
2022/07/01 10:18:45;;;;;;;6.43;4.15;;;;;;;19.55;100.00;165682.53;5001816;28;20026;-56
2022/07/01 10:21:26;;;;;;;4.93;3.90;;;;;;;19.93;100.00;165783.00;4992669;28;20050;-56
2022/07/01 10:23:51;;;;;;;7.43;5.18;;;;;;;20.34;100.00;165888.88;4995338;28;20508;-57
2022/07/01 10:26:18;;;;;;;6.68;5.97;;;;;;;20.60;100.00;165959.47;5002658;28;20058;-56
2022/07/01 10:28:45;;;;;;;6.90;5.32;;;;;;;20.94;100.00;166046.44;5006026;28;20557;-56
2022/07/01 10:31:15;;;;;;;7.07;6.50;;;;;;;20.61;100.00;165962.19;4992440;28;20123;-57
2022/07/01 10:33:53;;;;;;;8.00;5.65;;;;;;;20.18;100.00;165848.16;5010258;28;20044;-56
2022/07/01 10:36:21;;;;;;;5.93;5.30;;;;;;;19.84;100.00;165758.63;4990228;28;20498;-56
2022/07/01 10:39:08;;;;;;;;;;;;;;;19.73;100.00;165728.69;4995894;28;20523;-57
2022/07/01 10:41:45;;;;;;;9.73;5.63;;;;;;;19.80;100.00;165747.69;5005078;28;19928;-57
2022/07/01 10:44:13;;;;;;;8.23;6.18;;;;;;;19.65;100.00;165709.69;5006965;28;20030;-57
2022/07/01 10:46:43;;;;;;;;;;;;;;;19.55;100.00;165682.53;4995534;28;20406;-57
2022/07/01 10:49:09;;;;;;;6.68;5.22;;;;;;;19.27;100.00;165609.28;4991951;28;19961;-57
2022/07/01 10:51:51;;;;;;;6.45;4.97;;;;;;;19.41;100.00;165644.53;4990362;28;20042;-56
2022/07/01 10:54:36;;;;;;;6.88;4.35;;;;;;;19.55;100.00;165681.19;4991267;28;20030;-56
2022/07/01 10:57:19;;;;;;;5.50;4.10;;;;;;;19.89;100.00;165772.16;4989217;28;20043;-57
2022/07/01 10:59:48;;;;;;;7.90;4.47;;;;;;;20.13;100.00;165834.59;4998092;28;20030;-56
2022/07/01 11:02:30;;;;;;;7.22;4.70;;;;;;;20.66;100.00;165974.41;5005137;28;20509;-56
2022/07/01 11:05:21;;;;;;;5.03;4.28;;;;;;;20.96;100.00;166053.22;4989889;28;20105;-57
2022/07/01 11:07:47;;;;;;;8.75;4.00;;;;;;;21.11;100.00;166092.56;4991082;28;20042;-57
2022/07/01 11:10:15;;;;;;;3.05;2.78;;;;;;;20.98;100.00;166058.66;4990596;28;20035;-57